Time;durP1;ratioP1;P1;durP2;ratioP2;P2;SDS_P1;SDS_P2;PMS_P1;PMS_P2;Temp;Humidity;BMP_temperature;BMP_pressure;BME280_temperature;BME280_humidity;BME280_pressure;Samples;Min_cycle;Max_cycle;Signal;HPM_P1;HPM_P2
2020/12/25 00:00:37;;;;;;;16.02;2.95;;;2.90;92.80;;;;;;4994420;28;20394;-50
2020/12/25 00:03:04;;;;;;;12.13;2.80;;;2.80;92.80;;;;;;4994652;28;20038;-49
2020/12/25 00:05:34;;;;;;;12.60;2.05;;;2.80;92.80;;;;;;4981233;28;20117;-49
2020/12/25 00:08:00;;;;;;;8.52;2.35;;;2.70;92.90;;;;;;5010298;28;20054;-49
2020/12/25 00:10:26;;;;;;;11.90;2.67;;;2.70;92.90;;;;;;4994389;28;20496;-47
2020/12/25 00:12:52;;;;;;;13.25;2.13;;;2.60;92.80;;;;;;5001197;28;20049;-49
2020/12/25 00:15:18;;;;;;;10.23;2.10;;;2.60;93.00;;;;;;4987250;28;20042;-48
2020/12/25 00:17:43;;;;;;;12.90;2.13;;;2.70;93.00;;;;;;4975791;28;20034;-51
2020/12/25 00:20:09;;;;;;;16.20;2.75;;;2.70;93.10;;;;;;4976013;28;20095;-47
2020/12/25 00:22:34;;;;;;;13.73;2.78;;;2.70;93.10;;;;;;4975586;28;20049;-49
2020/12/25 00:25:00;;;;;;;13.10;2.70;;;2.70;93.10;;;;;;4975841;28;20035;-48
2020/12/25 00:27:26;;;;;;;14.25;2.75;;;2.70;93.00;;;;;;4989621;28;20046;-48
2020/12/25 00:29:51;;;;;;;14.73;2.63;;;2.80;93.10;;;;;;4975885;28;20046;-49
2020/12/25 00:32:17;;;;;;;14.45;2.45;;;2.80;93.10;;;;;;4988550;28;20093;-48
2020/12/25 00:34:42;;;;;;;13.75;2.85;;;2.80;93.00;;;;;;4976786;28;20042;-47
2020/12/25 00:37:10;;;;;;;11.20;2.63;;;2.90;93.00;;;;;;4976306;28;20045;-49
2020/12/25 00:39:39;;;;;;;15.88;2.30;;;2.90;93.10;;;;;;4992351;28;20269;-49
2020/12/25 00:42:07;;;;;;;12.38;2.65;;;2.90;93.00;;;;;;4976520;28;20090;-51
2020/12/25 00:44:33;;;;;;;13.40;2.38;;;2.90;92.90;;;;;;4994734;28;20030;-48
2020/12/25 00:46:59;;;;;;;15.20;2.00;;;2.90;93.00;;;;;;4985305;28;20058;-49
2020/12/25 00:49:25;;;;;;;12.02;2.22;;;2.90;92.90;;;;;;4977216;28;20503;-49
2020/12/25 00:51:52;;;;;;;16.95;2.20;;;2.90;92.80;;;;;;4976381;28;20102;-49
2020/12/25 00:54:18;;;;;;;12.73;2.25;;;3.00;92.90;;;;;;4975862;28;20094;-50
2020/12/25 00:56:44;;;;;;;15.18;2.28;;;2.90;92.90;;;;;;5003903;28;20069;-49
2020/12/25 00:59:09;;;;;;;12.50;2.10;;;2.90;92.90;;;;;;4994165;28;20406;-50
2020/12/25 01:01:37;;;;;;;13.25;2.10;;;2.90;92.90;;;;;;4994087;28;20050;-50
2020/12/25 01:04:04;;;;;;;18.17;2.35;;;2.90;92.90;;;;;;4993121;28;20183;-48
2020/12/25 01:06:30;;;;;;;15.82;2.25;;;2.90;92.80;;;;;;4993701;28;20054;-49
2020/12/25 01:08:55;;;;;;;7.90;2.25;;;2.90;92.80;;;;;;4993081;28;20081;-50
2020/12/25 01:11:25;;;;;;;10.18;1.80;;;3.00;92.80;;;;;;4994127;28;20077;-49
2020/12/25 01:13:50;;;;;;;10.85;1.75;;;2.90;92.80;;;;;;4974823;28;20129;-47
2020/12/25 01:16:16;;;;;;;12.07;2.17;;;3.00;92.80;;;;;;4975693;28;20058;-50
2020/12/25 01:18:50;;;;;;;10.52;1.85;;;3.10;92.70;;;;;;4988167;28;20514;-51
2020/12/25 01:21:17;;;;;;;13.07;1.70;;;3.20;92.60;;;;;;4978029;28;20058;-48
2020/12/25 01:23:43;;;;;;;8.43;1.85;;;3.20;92.50;;;;;;4985739;28;20042;-48
2020/12/25 01:26:09;;;;;;;12.65;1.80;;;3.20;92.40;;;;;;4990834;28;20063;-47
2020/12/25 01:28:36;;;;;;;8.52;1.35;;;3.20;92.40;;;;;;4984510;28;20053;-48
2020/12/25 01:31:04;;;;;;;13.00;1.83;;;3.30;92.40;;;;;;4990129;28;20406;-48
2020/12/25 01:33:33;;;;;;;8.85;1.20;;;3.30;92.40;;;;;;4994246;28;20529;-51
2020/12/25 01:36:00;;;;;;;9.10;1.25;;;3.30;92.30;;;;;;4992747;28;20414;-48
2020/12/25 01:38:28;;;;;;;4.35;1.45;;;3.30;92.30;;;;;;4992327;28;20038;-49
2020/12/25 01:40:55;;;;;;;7.72;0.95;;;3.40;92.40;;;;;;4991333;28;20130;-48
2020/12/25 01:43:21;;;;;;;5.05;0.82;;;3.40;92.40;;;;;;4991604;28;20047;-48
2020/12/25 01:45:48;;;;;;;4.40;0.90;;;3.50;92.20;;;;;;4992525;28;20042;-47
2020/12/25 01:48:14;;;;;;;4.85;0.80;;;3.60;92.10;;;;;;4992726;28;20046;-48
2020/12/25 01:50:40;;;;;;;4.78;0.60;;;3.60;92.10;;;;;;4985629;28;20458;-49
2020/12/25 01:53:08;;;;;;;2.35;0.60;;;3.50;92.00;;;;;;4987065;28;20072;-48
2020/12/25 01:55:36;;;;;;;4.05;0.70;;;3.60;92.30;;;;;;4981698;28;20078;-47
2020/12/25 01:58:07;;;;;;;4.47;0.70;;;3.50;92.10;;;;;;4989560;28;20046;-48
2020/12/25 02:00:34;;;;;;;5.97;0.77;;;3.50;92.10;;;;;;4991332;28;20069;-49
2020/12/25 02:03:00;;;;;;;5.82;0.60;;;3.50;92.20;;;;;;4992727;28;20513;-48
2020/12/25 02:05:25;;;;;;;2.83;0.40;;;3.50;92.20;;;;;;4990731;28;20073;-49
2020/12/25 02:07:55;;;;;;;4.43;0.57;;;3.50;92.30;;;;;;4981335;28;20047;-48
2020/12/25 02:10:22;;;;;;;3.33;0.45;;;3.50;92.30;;;;;;4991740;28;20070;-48
2020/12/25 02:12:47;;;;;;;2.58;0.93;;;3.50;92.30;;;;;;4991448;28;20049;-47
2020/12/25 02:15:14;;;;;;;6.07;0.70;;;3.70;91.80;;;;;;4979991;28;20419;-49
2020/12/25 02:17:46;;;;;;;5.43;0.82;;;3.80;91.70;;;;;;4975087;28;20039;-48
2020/12/25 02:20:13;;;;;;;;;;;3.90;91.90;;;;;;4990007;28;20104;-48
2020/12/25 02:22:39;;;;;;;4.35;1.00;;;3.90;92.10;;;;;;4986698;28;20382;-48
2020/12/25 02:25:06;;;;;;;5.00;0.55;;;4.00;92.20;;;;;;4983555;28;20438;-50
2020/12/25 02:27:32;;;;;;;5.43;0.70;;;4.10;92.00;;;;;;4977494;28;20109;-49
2020/12/25 02:29:58;;;;;;;3.47;0.50;;;4.00;92.10;;;;;;4974409;28;20189;-48
2020/12/25 02:32:25;;;;;;;2.13;0.70;;;4.00;92.20;;;;;;4973696;28;20136;-47
2020/12/25 02:34:51;;;;;;;6.25;0.90;;;4.00;92.50;;;;;;4980414;28;20487;-48
2020/12/25 02:37:17;;;;;;;6.35;0.70;;;3.90;92.40;;;;;;4994994;28;20121;-47
2020/12/25 02:39:44;;;;;;;4.78;0.82;;;3.80;92.60;;;;;;4973625;28;20134;-48
2020/12/25 02:42:11;;;;;;;2.00;0.57;;;3.80;92.60;;;;;;4971109;28;20400;-48
2020/12/25 02:44:39;;;;;;;2.70;0.60;;;3.70;92.60;;;;;;4973504;28;20078;-48
2020/12/25 02:47:06;;;;;;;3.67;0.68;;;3.60;92.60;;;;;;4982156;28;20045;-48
2020/12/25 02:49:33;;;;;;;3.22;0.75;;;3.50;92.70;;;;;;4979224;28;20046;-48
2020/12/25 02:51:59;;;;;;;4.38;0.90;;;3.10;92.80;;;;;;4985266;28;20058;-48
2020/12/25 02:54:33;;;;;;;4.03;0.60;;;3.40;92.90;;;;;;4974386;28;20051;-49
2020/12/25 02:57:01;;;;;;;2.50;0.65;;;3.30;92.90;;;;;;4991929;28;20046;-48
2020/12/25 02:59:29;;;;;;;4.45;1.00;;;3.30;93.00;;;;;;4993275;28;20089;-47
2020/12/25 03:01:54;;;;;;;5.85;0.80;;;3.20;93.10;;;;;;4989761;28;20054;-49
2020/12/25 03:04:20;;;;;;;5.60;0.70;;;3.20;93.20;;;;;;4989828;28;20451;-48
2020/12/25 03:06:48;;;;;;;6.90;0.60;;;3.20;93.20;;;;;;4992423;28;20434;-48
2020/12/25 03:09:14;;;;;;;4.13;0.85;;;3.10;93.20;;;;;;5010399;28;20522;-48
2020/12/25 03:11:40;;;;;;;2.80;0.60;;;3.10;93.30;;;;;;4996748;28;20070;-48
2020/12/25 03:14:11;;;;;;;4.53;0.75;;;3.00;93.30;;;;;;4991537;28;20061;-48
2020/12/25 03:16:42;;;;;;;7.95;0.80;;;3.00;93.30;;;;;;4979022;28;20507;-47
2020/12/25 03:19:10;;;;;;;1.45;0.50;;;2.90;93.30;;;;;;4976403;28;20069;-50
2020/12/25 03:21:37;;;;;;;4.15;0.60;;;2.90;93.30;;;;;;4990266;28;20518;-48
2020/12/25 03:24:03;;;;;;;2.25;0.57;;;2.80;93.20;;;;;;4998747;28;20062;-48
2020/12/25 03:26:28;;;;;;;6.88;0.70;;;2.80;93.30;;;;;;4993553;28;20049;-47
2020/12/25 03:28:54;;;;;;;6.70;1.10;;;2.70;93.40;;;;;;4997220;28;20046;-48
2020/12/25 03:31:21;;;;;;;4.35;0.82;;;2.70;93.40;;;;;;5011660;28;20046;-49
2020/12/25 03:33:46;;;;;;;4.75;0.70;;;2.70;93.30;;;;;;4997386;28;20412;-49
2020/12/25 03:36:12;;;;;;;2.47;0.60;;;2.60;93.20;;;;;;4996874;28;20045;-50
2020/12/25 03:38:38;;;;;;;0.98;0.40;;;2.50;93.10;;;;;;4995579;28;20045;-52
2020/12/25 03:41:05;;;;;;;5.55;0.70;;;2.50;93.20;;;;;;4961620;28;20055;-49
2020/12/25 03:43:30;;;;;;;2.70;0.52;;;2.40;93.20;;;;;;4994217;28;20042;-46
2020/12/25 03:45:57;;;;;;;4.32;0.40;;;2.40;93.40;;;;;;4984581;28;20054;-49
2020/12/25 03:48:22;;;;;;;3.83;0.50;;;2.30;93.40;;;;;;4999390;28;20514;-48
2020/12/25 03:50:48;;;;;;;5.47;0.80;;;2.30;93.40;;;;;;5000559;28;20049;-47
2020/12/25 03:53:15;;;;;;;5.63;0.65;;;2.30;93.40;;;;;;5000149;28;20039;-49
2020/12/25 03:55:41;;;;;;;4.00;0.63;;;2.40;93.60;;;;;;5001198;28;20242;-49
2020/12/25 03:58:07;;;;;;;4.15;0.70;;;2.40;93.50;;;;;;5000124;28;20054;-49
2020/12/25 04:00:32;;;;;;;4.78;0.88;;;2.40;93.60;;;;;;5001551;28;20109;-48
2020/12/25 04:02:59;;;;;;;4.72;0.68;;;2.40;93.60;;;;;;4999960;28;20038;-49
2020/12/25 04:05:25;;;;;;;7.32;0.80;;;2.40;93.60;;;;;;4986983;28;20446;-48
2020/12/25 04:07:51;;;;;;;4.90;0.70;;;2.40;93.60;;;;;;4987970;28;20042;-51
2020/12/25 04:10:17;;;;;;;2.10;0.70;;;2.50;93.50;;;;;;5000796;28;20054;-50
2020/12/25 04:12:43;;;;;;;3.45;0.68;;;2.50;93.50;;;;;;5001226;28;20092;-51
2020/12/25 04:15:08;;;;;;;4.00;0.90;;;2.50;93.50;;;;;;4999694;28;20457;-49
2020/12/25 04:17:34;;;;;;;4.03;0.70;;;2.50;93.50;;;;;;4999438;28;20034;-49
2020/12/25 04:19:59;;;;;;;3.30;0.80;;;2.50;93.40;;;;;;4997205;28;20047;-50
2020/12/25 04:22:26;;;;;;;3.90;0.85;;;2.50;93.40;;;;;;4999728;28;20069;-48
2020/12/25 04:24:52;;;;;;;5.18;1.10;;;2.50;93.30;;;;;;4999499;28;20498;-49
2020/12/25 04:27:17;;;;;;;3.63;1.10;;;2.50;93.40;;;;;;4999572;28;20125;-50
2020/12/25 04:29:43;;;;;;;10.05;1.30;;;2.50;93.40;;;;;;4992578;28;20133;-49
2020/12/25 04:32:09;;;;;;;7.13;1.00;;;2.50;93.40;;;;;;4985532;28;20042;-49
2020/12/25 04:34:34;;;;;;;3.78;1.15;;;2.50;93.40;;;;;;4998842;28;20454;-50
2020/12/25 04:37:00;;;;;;;1.83;0.73;;;2.50;93.40;;;;;;5000627;28;20046;-50
2020/12/25 04:39:26;;;;;;;4.82;0.70;;;2.50;93.30;;;;;;4998471;28;20046;-49
2020/12/25 04:41:53;;;;;;;5.70;0.88;;;2.50;93.30;;;;;;5000766;28;20038;-49
2020/12/25 04:44:19;;;;;;;3.20;1.13;;;2.40;93.30;;;;;;4997979;28;20042;-49
2020/12/25 04:46:45;;;;;;;3.88;0.70;;;2.40;93.20;;;;;;4999303;28;20451;-47
2020/12/25 04:49:11;;;;;;;4.95;1.15;;;2.40;93.10;;;;;;4995962;28;20046;-49
2020/12/25 04:51:38;;;;;;;4.20;0.80;;;2.40;93.20;;;;;;4994941;28;20027;-49
2020/12/25 04:54:04;;;;;;;5.60;1.00;;;2.40;93.20;;;;;;4998272;28;20046;-49
2020/12/25 04:56:29;;;;;;;5.63;1.08;;;2.40;93.20;;;;;;5002434;28;20042;-48
2020/12/25 04:58:57;;;;;;;10.60;1.05;;;2.50;93.20;;;;;;4985593;28;20114;-48
2020/12/25 05:01:26;;;;;;;6.95;1.40;;;2.50;93.20;;;;;;4996779;28;20058;-49
2020/12/25 05:03:52;;;;;;;8.13;1.08;;;2.50;93.10;;;;;;5000361;28;20053;-48
2020/12/25 05:06:19;;;;;;;7.13;1.45;;;2.60;93.00;;;;;;4998079;28;20032;-48
2020/12/25 05:08:52;;;;;;;11.27;1.20;;;2.60;93.10;;;;;;5000110;28;20100;-49
2020/12/25 05:11:21;;;;;;;7.10;1.40;;;2.60;93.10;;;;;;4998032;28;22467;-49
2020/12/25 05:13:54;;;;;;;7.88;1.27;;;2.60;93.10;;;;;;4999722;28;20413;-49
2020/12/25 05:16:22;;;;;;;7.30;1.13;;;2.70;93.20;;;;;;5013591;28;20050;-49
2020/12/25 05:18:52;;;;;;;11.27;1.38;;;2.70;93.20;;;;;;4991043;28;20047;-48
2020/12/25 05:21:20;;;;;;;8.15;1.20;;;2.70;93.10;;;;;;4979558;28;20057;-47
2020/12/25 05:23:49;;;;;;;12.18;1.85;;;2.70;93.10;;;;;;4996761;28;20066;-48
2020/12/25 05:26:17;;;;;;;8.77;1.52;;;2.70;93.10;;;;;;4979908;28;20042;-50
2020/12/25 05:28:45;;;;;;;8.50;1.33;;;2.70;93.10;;;;;;4970232;28;20046;-48
2020/12/25 05:31:12;;;;;;;7.63;1.35;;;2.60;93.10;;;;;;5003304;28;20196;-49
2020/12/25 05:33:38;;;;;;;9.68;1.33;;;2.60;93.10;;;;;;4980289;28;20490;-49
2020/12/25 05:36:06;;;;;;;11.73;1.90;;;2.60;93.00;;;;;;4976417;28;20039;-47
2020/12/25 05:38:32;;;;;;;6.57;1.13;;;2.60;93.10;;;;;;4976996;28;20050;-48
2020/12/25 05:41:03;;;;;;;6.93;1.08;;;2.60;93.10;;;;;;4993040;28;20565;-49
2020/12/25 05:43:29;;;;;;;8.18;1.40;;;2.60;93.10;;;;;;4993224;28;20066;-47
2020/12/25 05:45:55;;;;;;;5.80;1.20;;;2.60;93.20;;;;;;4975340;28;20492;-48
2020/12/25 05:48:21;;;;;;;13.73;1.77;;;2.60;93.00;;;;;;4994412;28;20632;-49
2020/12/25 05:50:48;;;;;;;7.85;1.50;;;2.60;93.10;;;;;;4983176;28;20042;-51
2020/12/25 05:53:13;;;;;;;10.88;1.30;;;2.60;93.10;;;;;;4987208;28;20456;-49
2020/12/25 05:55:39;;;;;;;12.60;1.67;;;2.60;93.10;;;;;;4986889;28;20081;-49
2020/12/25 05:58:05;;;;;;;7.18;1.23;;;2.60;93.20;;;;;;4993623;28;20042;-49
2020/12/25 06:00:33;;;;;;;6.43;1.20;;;2.60;93.20;;;;;;4987710;28;20470;-48
2020/12/25 06:03:00;;;;;;;8.82;1.40;;;2.60;93.20;;;;;;4982970;28;20042;-48
2020/12/25 06:05:31;;;;;;;8.00;1.40;;;2.60;93.20;;;;;;5008308;28;20065;-48
2020/12/25 06:08:00;;;;;;;9.00;1.38;;;2.70;93.20;;;;;;4991751;28;20046;-48
2020/12/25 06:10:30;;;;;;;7.13;1.23;;;2.60;93.20;;;;;;4992252;28;20048;-49
2020/12/25 06:12:57;;;;;;;9.55;1.33;;;2.70;93.30;;;;;;4987491;28;20053;-49
2020/12/25 06:15:33;;;;;;;11.80;1.85;;;2.60;93.20;;;;;;4993296;28;20407;-50
2020/12/25 06:18:13;;;;;;;11.25;1.65;;;2.60;93.30;;;;;;4973915;28;20634;-51
2020/12/25 06:21:03;;;;;;;7.85;1.60;;;2.70;93.30;;;;;;4964391;28;20038;-49
2020/12/25 06:23:30;;;;;;;11.50;1.35;;;2.70;93.10;;;;;;4980075;28;20052;-49
2020/12/25 06:26:06;;;;;;;8.07;1.42;;;2.70;93.10;;;;;;4986808;28;20092;-48
2020/12/25 06:28:32;;;;;;;9.95;1.30;;;2.70;93.00;;;;;;4990731;28;20039;-48
2020/12/25 06:31:00;;;;;;;9.93;1.55;;;2.70;92.90;;;;;;4993601;28;20066;-50
2020/12/25 06:33:28;;;;;;;9.55;1.10;;;2.80;93.00;;;;;;4988577;28;20050;-48
2020/12/25 06:35:58;;;;;;;12.43;1.50;;;2.80;92.90;;;;;;4989460;28;20050;-48
2020/12/25 06:38:24;;;;;;;4.95;1.40;;;2.70;92.90;;;;;;4991270;28;20120;-47
2020/12/25 06:40:57;;;;;;;9.05;1.33;;;2.70;92.80;;;;;;4989402;28;20509;-47
2020/12/25 06:43:24;;;;;;;9.02;1.30;;;2.70;92.90;;;;;;5009838;28;20141;-48
2020/12/25 06:45:52;;;;;;;9.48;1.55;;;2.70;92.80;;;;;;4996506;28;20053;-49
2020/12/25 06:48:20;;;;;;;6.40;1.10;;;2.70;92.80;;;;;;4998497;28;20042;-48
2020/12/25 06:50:52;;;;;;;6.93;1.50;;;2.70;92.80;;;;;;4994190;28;20050;-47
2020/12/25 06:53:34;;;;;;;9.43;1.60;;;2.70;92.80;;;;;;4991666;28;20034;-50
2020/12/25 06:56:13;;;;;;;7.78;1.42;;;2.70;92.80;;;;;;4993910;28;20814;-51
2020/12/25 06:58:53;;;;;;;10.73;1.50;;;2.70;92.80;;;;;;4991836;28;20038;-48
2020/12/25 07:01:42;;;;;;;11.45;1.45;;;2.70;92.90;;;;;;4987571;28;20046;-49
2020/12/25 07:04:21;;;;;;;11.07;1.35;;;2.80;92.90;;;;;;4988031;28;20042;-49
2020/12/25 07:06:52;;;;;;;13.45;1.45;;;2.80;93.00;;;;;;4991898;28;20074;-49
2020/12/25 07:09:18;;;;;;;5.38;1.20;;;2.80;92.90;;;;;;4992595;28;20039;-47
2020/12/25 07:11:48;;;;;;;10.25;1.20;;;2.80;93.10;;;;;;4986163;28;20042;-48
2020/12/25 07:14:14;;;;;;;11.73;1.80;;;2.80;93.10;;;;;;4985995;28;20097;-51
2020/12/25 07:16:41;;;;;;;7.28;1.38;;;2.80;93.10;;;;;;4996226;28;20541;-48
2020/12/25 07:19:08;;;;;;;10.48;1.35;;;2.90;93.10;;;;;;4991391;28;20121;-49
2020/12/25 07:21:36;;;;;;;8.20;1.08;;;2.90;93.10;;;;;;4993225;28;20046;-48
2020/12/25 07:24:04;;;;;;;6.13;1.13;;;2.90;93.10;;;;;;4988249;28;20043;-48
2020/12/25 07:26:30;;;;;;;5.63;1.00;;;2.90;93.10;;;;;;4992006;28;20050;-49
2020/12/25 07:29:00;;;;;;;5.97;1.33;;;2.90;93.10;;;;;;4999512;28;20042;-49
2020/12/25 07:31:26;;;;;;;10.27;1.35;;;2.90;93.20;;;;;;5003224;28;20050;-48
2020/12/25 07:33:55;;;;;;;8.02;1.08;;;2.90;93.20;;;;;;4990554;28;20657;-50
2020/12/25 07:36:24;;;;;;;11.02;1.55;;;2.90;93.20;;;;;;4990284;28;20065;-49
2020/12/25 07:39:00;;;;;;;7.28;1.20;;;2.90;93.20;;;;;;4992800;28;20039;-50
2020/12/25 07:41:29;;;;;;;10.18;1.35;;;2.90;93.20;;;;;;4989945;28;20464;-50
2020/12/25 07:43:57;;;;;;;6.55;1.10;;;2.90;93.20;;;;;;4983299;28;20069;-48
2020/12/25 07:46:24;;;;;;;7.05;1.30;;;2.90;93.20;;;;;;4987714;28;20031;-50
2020/12/25 07:48:59;;;;;;;8.95;1.40;;;2.90;93.20;;;;;;4989081;28;20058;-48
2020/12/25 07:51:25;;;;;;;10.88;1.38;;;2.90;93.20;;;;;;5012084;28;20038;-48
2020/12/25 07:53:55;;;;;;;7.63;1.40;;;2.90;93.30;;;;;;4990763;28;20046;-51
2020/12/25 07:56:23;;;;;;;9.30;1.27;;;3.00;93.20;;;;;;4994336;28;20306;-48
2020/12/25 07:58:50;;;;;;;9.85;1.38;;;3.00;93.20;;;;;;4993417;28;20499;-48
2020/12/25 08:01:22;;;;;;;8.43;1.30;;;3.00;93.20;;;;;;4983905;28;20051;-51
2020/12/25 08:03:48;;;;;;;9.10;1.45;;;3.00;93.20;;;;;;5010133;28;20050;-50
2020/12/25 08:06:16;;;;;;;9.18;1.67;;;3.10;93.20;;;;;;4980858;28;20076;-52
2020/12/25 08:08:45;;;;;;;7.45;1.10;;;3.10;93.20;;;;;;4988735;28;20042;-48
2020/12/25 08:11:14;;;;;;;7.82;1.20;;;3.10;93.20;;;;;;4989775;28;20114;-47
2020/12/25 08:13:40;;;;;;;11.77;1.48;;;3.10;93.10;;;;;;4981983;28;20097;-51
2020/12/25 08:16:06;;;;;;;7.70;1.52;;;3.10;93.10;;;;;;4988356;28;20043;-50
2020/12/25 08:18:32;;;;;;;10.60;1.88;;;3.10;93.10;;;;;;4991112;28;20473;-51
2020/12/25 08:21:00;;;;;;;4.38;1.13;;;3.10;93.10;;;;;;4984968;28;20086;-49
2020/12/25 08:23:26;;;;;;;7.13;1.13;;;3.10;93.10;;;;;;4989034;28;20047;-51
2020/12/25 08:25:55;;;;;;;4.50;1.05;;;3.10;93.10;;;;;;4988415;28;20049;-49
2020/12/25 08:28:22;;;;;;;9.30;1.30;;;3.10;93.10;;;;;;4990329;28;20522;-51
2020/12/25 08:30:49;;;;;;;6.97;1.13;;;3.10;93.10;;;;;;5009211;28;20046;-48
2020/12/25 08:33:25;;;;;;;6.82;1.15;;;3.20;93.20;;;;;;4993220;28;20057;-49
2020/12/25 08:35:52;;;;;;;8.60;1.42;;;3.20;93.20;;;;;;4993593;28;20078;-49
2020/12/25 08:38:17;;;;;;;4.53;1.02;;;3.30;93.30;;;;;;4979770;28;20051;-50
2020/12/25 08:40:45;;;;;;;10.45;1.65;;;3.30;93.20;;;;;;4993225;28;20043;-50
2020/12/25 08:43:16;;;;;;;9.45;1.20;;;3.40;93.20;;;;;;4981131;28;20507;-47
2020/12/25 08:45:58;;;;;;;6.72;1.10;;;3.40;93.20;;;;;;4992072;28;20219;-48
2020/12/25 08:48:23;;;;;;;5.60;1.00;;;3.50;93.10;;;;;;4986285;28;20042;-48
2020/12/25 08:50:49;;;;;;;6.40;1.38;;;3.50;93.00;;;;;;4987958;28;20129;-50
2020/12/25 08:53:21;;;;;;;6.40;1.23;;;3.60;92.90;;;;;;4991796;28;20042;-51
2020/12/25 08:55:54;;;;;;;15.43;1.40;;;3.60;92.70;;;;;;4992944;28;20116;-51
2020/12/25 08:58:22;;;;;;;13.13;1.45;;;3.70;92.70;;;;;;4992729;28;20043;-49
2020/12/25 09:01:01;;;;;;;9.95;1.63;;;3.80;92.50;;;;;;4992662;28;20066;-51
2020/12/25 09:03:39;;;;;;;8.18;1.50;;;3.90;92.30;;;;;;4992140;28;20034;-50
2020/12/25 09:06:06;;;;;;;11.27;1.70;;;3.90;92.20;;;;;;4986045;28;20038;-49
2020/12/25 09:08:31;;;;;;;11.68;1.45;;;3.90;92.30;;;;;;4986927;28;20049;-48
2020/12/25 09:10:57;;;;;;;7.90;1.70;;;3.90;92.30;;;;;;4987050;28;20046;-50
2020/12/25 09:13:22;;;;;;;8.00;1.38;;;4.00;92.20;;;;;;4978468;28;20095;-49
2020/12/25 09:15:48;;;;;;;9.52;1.48;;;3.90;92.20;;;;;;4984382;28;20558;-50
2020/12/25 09:18:13;;;;;;;8.07;1.08;;;3.90;92.30;;;;;;4991790;28;20039;-48
2020/12/25 09:20:40;;;;;;;8.95;1.52;;;3.90;92.40;;;;;;4985348;28;20046;-51
2020/12/25 09:23:05;;;;;;;6.82;1.30;;;3.80;92.40;;;;;;4988783;28;20867;-50
2020/12/25 09:25:31;;;;;;;8.82;1.50;;;3.80;92.40;;;;;;4985501;28;20034;-50
2020/12/25 09:27:56;;;;;;;10.27;1.27;;;3.80;92.50;;;;;;4989802;28;20101;-48
2020/12/25 09:30:22;;;;;;;4.55;0.90;;;3.80;92.60;;;;;;4986330;28;20043;-48
2020/12/25 09:32:47;;;;;;;5.70;1.10;;;3.80;92.50;;;;;;4972314;28;20039;-49
2020/12/25 09:35:13;;;;;;;9.38;1.27;;;3.80;92.60;;;;;;4986441;28;20054;-49
2020/12/25 09:37:39;;;;;;;9.52;1.58;;;3.80;92.60;;;;;;4972834;28;20043;-48
2020/12/25 09:40:04;;;;;;;9.23;1.63;;;3.90;92.70;;;;;;4973107;28;20082;-51
2020/12/25 09:42:30;;;;;;;4.57;1.23;;;4.00;92.60;;;;;;4992292;28;20112;-49
2020/12/25 09:44:56;;;;;;;10.05;1.58;;;4.10;92.50;;;;;;4992942;28;20363;-48
2020/12/25 09:47:21;;;;;;;8.23;1.30;;;4.20;92.40;;;;;;4991202;28;20057;-48
2020/12/25 09:49:50;;;;;;;6.18;1.20;;;4.20;92.10;;;;;;4987418;28;20142;-48
2020/12/25 09:52:17;;;;;;;7.68;1.10;;;4.20;92.00;;;;;;4991086;28;20622;-49
2020/12/25 09:54:43;;;;;;;7.75;1.42;;;4.20;92.00;;;;;;4984779;28;20038;-48
2020/12/25 09:57:08;;;;;;;4.45;1.02;;;4.20;92.00;;;;;;4986168;28;20045;-48
2020/12/25 09:59:34;;;;;;;9.38;1.38;;;4.10;92.00;;;;;;4980600;28;20054;-49
2020/12/25 10:01:59;;;;;;;5.47;1.13;;;4.20;92.00;;;;;;4986051;28;20051;-49
2020/12/25 10:04:25;;;;;;;6.63;1.10;;;4.20;92.00;;;;;;4993287;28;20054;-48
2020/12/25 10:06:55;;;;;;;4.70;0.90;;;4.30;92.00;;;;;;4993267;28;20050;-48
2020/12/25 10:09:22;;;;;;;6.07;1.15;;;4.30;92.00;;;;;;4988962;28;20057;-48
2020/12/25 10:11:48;;;;;;;6.35;1.27;;;4.40;92.20;;;;;;5004138;28;20392;-52
2020/12/25 10:14:14;;;;;;;8.15;1.30;;;4.50;91.90;;;;;;4994015;28;20092;-49
2020/12/25 10:16:40;;;;;;;10.02;1.50;;;4.50;92.00;;;;;;4994668;28;20038;-49
2020/12/25 10:19:06;;;;;;;8.02;1.17;;;4.60;92.10;;;;;;4985725;28;20046;-48
2020/12/25 10:21:32;;;;;;;7.53;1.42;;;4.50;92.00;;;;;;4989582;28;20043;-50
2020/12/25 10:23:58;;;;;;;6.47;1.20;;;4.50;91.90;;;;;;4986328;28;20049;-48
2020/12/25 10:26:24;;;;;;;4.88;1.35;;;4.40;92.10;;;;;;4988727;28;20046;-48
2020/12/25 10:28:50;;;;;;;7.78;1.20;;;4.40;92.10;;;;;;4990210;28;20057;-48
2020/12/25 10:31:16;;;;;;;5.10;0.98;;;4.30;92.20;;;;;;4995444;28;20038;-49
2020/12/25 10:33:41;;;;;;;6.72;1.23;;;4.40;92.30;;;;;;4992713;28;20040;-48
2020/12/25 10:36:08;;;;;;;9.45;1.25;;;4.40;92.50;;;;;;4980302;28;20054;-49
2020/12/25 10:38:34;;;;;;;8.00;1.75;;;4.40;92.40;;;;;;4993387;28;20038;-48
2020/12/25 10:41:04;;;;;;;7.63;1.50;;;4.50;92.30;;;;;;4986080;28;20487;-49
2020/12/25 10:43:32;;;;;;;8.23;1.30;;;4.50;92.30;;;;;;4989892;28;20039;-49
2020/12/25 10:45:58;;;;;;;11.50;1.30;;;4.50;92.10;;;;;;4994012;28;20043;-50
2020/12/25 10:48:24;;;;;;;8.50;1.20;;;4.60;92.20;;;;;;4993410;28;20460;-49
2020/12/25 10:50:49;;;;;;;5.40;1.10;;;4.60;92.10;;;;;;4996383;28;20089;-52
2020/12/25 10:53:15;;;;;;;7.55;1.60;;;4.70;91.80;;;;;;5003681;28;20490;-51
2020/12/25 10:55:41;;;;;;;8.63;0.90;;;4.70;91.70;;;;;;4994601;28;20550;-52
2020/12/25 10:58:06;;;;;;;9.00;1.30;;;4.60;91.80;;;;;;4994210;28;20109;-48
2020/12/25 11:00:32;;;;;;;8.82;1.30;;;4.70;91.70;;;;;;4994266;28;20046;-52
2020/12/25 11:02:57;;;;;;;11.50;1.45;;;4.80;91.60;;;;;;4993409;28;20384;-49
2020/12/25 11:05:23;;;;;;;8.77;1.25;;;4.80;91.70;;;;;;4985244;28;20046;-49
2020/12/25 11:07:48;;;;;;;3.95;1.10;;;4.80;91.50;;;;;;5001330;28;20054;-48
2020/12/25 11:10:16;;;;;;;7.90;1.25;;;4.80;91.40;;;;;;4992175;28;20062;-48
2020/12/25 11:12:42;;;;;;;7.05;1.88;;;4.80;91.10;;;;;;4992540;28;20046;-49
2020/12/25 11:15:07;;;;;;;8.07;1.50;;;4.80;91.40;;;;;;4980199;28;20039;-48
2020/12/25 11:17:34;;;;;;;10.55;1.80;;;4.70;91.40;;;;;;4979058;28;20042;-48
2020/12/25 11:20:00;;;;;;;8.18;1.50;;;4.80;91.50;;;;;;4992111;28;20045;-48
2020/12/25 11:22:27;;;;;;;13.18;1.75;;;4.70;91.30;;;;;;4994844;28;20046;-48
2020/12/25 11:24:54;;;;;;;8.63;1.30;;;4.70;91.40;;;;;;5002708;28;20050;-49
2020/12/25 11:27:19;;;;;;;9.00;1.27;;;4.70;91.10;;;;;;4993685;28;20042;-49
2020/12/25 11:29:45;;;;;;;8.57;1.58;;;4.70;91.50;;;;;;4994801;28;20060;-48
2020/12/25 11:32:10;;;;;;;8.57;1.50;;;4.70;91.30;;;;;;4995718;28;20461;-52
2020/12/25 11:34:36;;;;;;;6.35;1.33;;;4.70;91.40;;;;;;4996246;28;20049;-48
2020/12/25 11:37:02;;;;;;;13.35;1.48;;;4.70;91.40;;;;;;4996734;28;20101;-49
2020/12/25 11:39:28;;;;;;;6.43;1.33;;;4.80;91.40;;;;;;4995822;28;20470;-48
2020/12/25 11:41:54;;;;;;;9.95;1.55;;;4.80;91.50;;;;;;4990296;28;20053;-48
2020/12/25 11:44:20;;;;;;;7.75;1.42;;;4.80;91.40;;;;;;4985611;28;20101;-49
2020/12/25 11:46:49;;;;;;;11.00;1.30;;;4.90;91.40;;;;;;4994972;28;20541;-50
2020/12/25 11:49:15;;;;;;;14.85;1.55;;;4.90;91.40;;;;;;4993693;28;20050;-48
2020/12/25 11:51:41;;;;;;;8.52;1.38;;;5.00;91.00;;;;;;4983553;28;20050;-48
2020/12/25 11:54:07;;;;;;;7.60;1.30;;;5.00;91.00;;;;;;4994898;28;20117;-48
2020/12/25 11:56:34;;;;;;;9.23;1.35;;;5.10;91.00;;;;;;4990370;28;20050;-48
2020/12/25 11:59:00;;;;;;;6.82;1.63;;;5.10;91.00;;;;;;4985477;28;20066;-48
2020/12/25 12:01:26;;;;;;;10.30;1.40;;;5.10;91.00;;;;;;4994883;28;20093;-51
2020/12/25 12:03:53;;;;;;;11.15;1.40;;;5.10;90.80;;;;;;4994632;28;20487;-52
2020/12/25 12:06:21;;;;;;;7.03;1.48;;;5.20;90.60;;;;;;4997101;28;20046;-49
2020/12/25 12:08:47;;;;;;;4.97;1.10;;;5.20;90.60;;;;;;4995078;28;20093;-48
2020/12/25 12:11:13;;;;;;;6.35;1.30;;;5.20;90.30;;;;;;4996918;28;20039;-49
2020/12/25 12:13:39;;;;;;;6.50;1.45;;;5.20;90.40;;;;;;4985563;28;20053;-48
2020/12/25 12:16:12;;;;;;;7.80;1.52;;;5.30;90.60;;;;;;4997791;28;20034;-50
2020/12/25 12:18:37;;;;;;;7.18;1.50;;;5.30;90.70;;;;;;5000127;28;20053;-51
2020/12/25 12:21:03;;;;;;;9.18;1.77;;;5.30;90.80;;;;;;4986098;28;20038;-48
2020/12/25 12:23:31;;;;;;;5.50;1.17;;;5.40;90.80;;;;;;4992577;28;20081;-48
2020/12/25 12:25:59;;;;;;;3.72;0.95;;;5.40;90.80;;;;;;4997045;28;20050;-49
2020/12/25 12:28:25;;;;;;;6.07;1.00;;;5.40;90.60;;;;;;4998270;28;20521;-50
2020/12/25 12:30:50;;;;;;;6.55;1.63;;;5.40;90.60;;;;;;4997886;28;20046;-51
2020/12/25 12:33:16;;;;;;;6.82;1.10;;;5.40;90.40;;;;;;4991076;28;20418;-48
2020/12/25 12:35:42;;;;;;;6.07;1.23;;;5.40;90.30;;;;;;4992667;28;20121;-50
2020/12/25 12:38:08;;;;;;;5.38;1.17;;;5.40;90.40;;;;;;4997137;28;20035;-48
2020/12/25 12:40:34;;;;;;;6.32;1.25;;;5.40;90.60;;;;;;4999645;28;20057;-48
2020/12/25 12:43:02;;;;;;;5.80;1.45;;;5.40;90.50;;;;;;4996885;28;20124;-50
2020/12/25 12:45:28;;;;;;;5.20;1.20;;;5.50;90.60;;;;;;4997949;28;20142;-49
2020/12/25 12:47:54;;;;;;;5.10;1.15;;;5.50;90.50;;;;;;4984971;28;20038;-49
2020/12/25 12:50:20;;;;;;;13.45;1.70;;;5.50;90.40;;;;;;4995239;28;20053;-51
2020/12/25 12:52:46;;;;;;;8.95;1.70;;;5.50;90.40;;;;;;4991038;28;20126;-48
2020/12/25 12:55:11;;;;;;;7.88;1.63;;;5.50;90.50;;;;;;4995411;28;20042;-51